createdAt,value
2018-11-10T00:00:09.217Z,33.10
2018-11-10T00:02:37.674Z,35.37
2018-11-10T00:05:06.621Z,33.40
2018-11-10T00:07:36.140Z,34.13
2018-11-10T00:10:05.293Z,36.80
2018-11-10T00:12:33.761Z,33.80
2018-11-10T00:15:03.049Z,35.70
2018-11-10T00:17:32.195Z,35.77
2018-11-10T00:20:00.666Z,33.30
2018-11-10T00:22:29.173Z,33.42
2018-11-10T00:24:59.268Z,34.67
2018-11-10T00:27:27.742Z,33.75
2018-11-10T00:29:56.682Z,33.70
2018-11-10T00:32:25.157Z,36.63
2018-11-10T00:34:53.687Z,35.80
2018-11-10T00:37:22.664Z,36.13
2018-11-10T00:39:52.650Z,35.70
2018-11-10T00:42:21.315Z,38.58
2018-11-10T00:44:49.819Z,36.77
2018-11-10T00:47:18.665Z,35.70
2018-11-10T00:49:47.154Z,34.97
2018-11-10T00:52:19.162Z,33.45
2018-11-10T00:54:47.665Z,34.73
2018-11-10T00:57:17.493Z,33.83
2018-11-10T00:59:46.023Z,33.90
2018-11-10T01:07:12.806Z,32.50
2018-11-10T01:09:41.359Z,32.87
2018-11-10T01:12:09.973Z,32.63
2018-11-10T01:14:38.945Z,31.33
2018-11-10T01:17:07.429Z,31.68
2018-11-10T01:19:36.527Z,30.70
2018-11-10T01:22:05.462Z,32.80
2018-11-10T01:24:33.930Z,32.00
2018-11-10T01:27:02.414Z,29.98
2018-11-10T01:29:31.600Z,31.57
2018-11-10T01:32:00.079Z,32.70
2018-11-10T01:34:28.561Z,32.47
2018-11-10T01:36:57.372Z,34.03
2018-11-10T01:39:25.980Z,32.88
2018-11-10T01:41:54.447Z,32.30
2018-11-10T01:44:23.003Z,32.90
2018-11-10T01:46:51.482Z,33.53
2018-11-10T01:49:20.599Z,34.17
2018-11-10T01:51:49.094Z,33.90
2018-11-10T01:54:17.558Z,34.93
2018-11-10T01:56:46.651Z,32.70
2018-11-10T02:04:15.506Z,33.13
2018-11-10T02:06:44.084Z,32.50
2018-11-10T02:09:12.553Z,32.77
2018-11-10T02:11:41.093Z,33.47
2018-11-10T02:14:09.857Z,36.00
2018-11-10T02:16:38.485Z,32.78
2018-11-10T02:19:07.172Z,33.10
2018-11-10T02:21:35.931Z,33.40
2018-11-10T02:24:04.445Z,31.55
2018-11-10T02:26:33.679Z,32.23
2018-11-10T02:29:02.202Z,36.00
2018-11-10T02:31:30.663Z,38.65
2018-11-10T02:34:00.168Z,34.20
2018-11-10T02:36:28.642Z,34.80
2018-11-10T02:38:57.101Z,32.97
2018-11-10T02:41:25.750Z,35.27
2018-11-10T02:43:54.213Z,32.20
2018-11-10T02:46:22.667Z,32.45
2018-11-10T02:48:51.430Z,31.63
2018-11-10T02:51:19.890Z,31.50
2018-11-10T02:53:48.356Z,33.70
2018-11-10T02:56:17.431Z,33.60
2018-11-10T02:58:45.903Z,33.63
2018-11-10T03:06:15.253Z,32.03
2018-11-10T03:08:43.743Z,36.07
2018-11-10T03:11:12.218Z,34.43
2018-11-10T03:13:40.701Z,31.73
2018-11-10T03:16:09.207Z,32.80
2018-11-10T03:18:37.671Z,33.90
2018-11-10T03:21:06.182Z,33.40
2018-11-10T03:23:35.830Z,29.77
2018-11-10T03:26:04.343Z,31.20
2018-11-10T03:28:34.464Z,32.57
2018-11-10T03:31:03.061Z,32.63
2018-11-10T03:33:31.638Z,31.42
2018-11-10T03:36:00.130Z,30.90
2018-11-10T03:38:28.595Z,29.57
2018-11-10T03:40:57.154Z,29.20
2018-11-10T03:43:25.769Z,31.87
2018-11-10T03:45:54.238Z,29.87
2018-11-10T03:48:22.799Z,31.57
2018-11-10T03:50:51.822Z,32.40
2018-11-10T03:53:20.325Z,33.43
2018-11-10T03:55:48.943Z,30.77
2018-11-10T03:58:17.429Z,28.27
2018-11-10T04:00:46.101Z,28.87
2018-11-10T04:13:07.290Z,30.90
2018-11-10T04:15:35.766Z,30.87
2018-11-10T04:18:04.235Z,31.40
2018-11-10T04:20:32.714Z,33.37
2018-11-10T04:23:01.193Z,34.80
2018-11-10T04:25:30.473Z,33.55
2018-11-10T04:27:58.953Z,33.47
2018-11-10T04:30:27.457Z,31.82
2018-11-10T04:32:55.925Z,28.90
2018-11-10T04:35:25.072Z,29.80
2018-11-10T04:37:53.534Z,29.53
2018-11-10T04:40:22.542Z,29.40
2018-11-10T04:42:52.090Z,29.33
2018-11-10T04:45:20.601Z,30.48
2018-11-10T04:47:49.065Z,30.20
2018-11-10T04:50:18.598Z,31.82
2018-11-10T04:52:47.097Z,30.57
2018-11-10T04:55:17.370Z,29.02
2018-11-10T04:57:46.818Z,29.73
2018-11-10T05:00:17.687Z,31.35
2018-11-10T05:02:46.306Z,28.60
2018-11-10T05:10:10.141Z,29.47
2018-11-10T05:12:38.813Z,30.40
2018-11-10T05:15:08.594Z,28.63
2018-11-10T05:17:37.951Z,31.33
2018-11-10T05:20:07.351Z,28.38
2018-11-10T05:22:35.824Z,30.60
2018-11-10T05:25:04.722Z,30.70
2018-11-10T05:27:34.073Z,31.60
2018-11-10T05:30:02.634Z,28.13
2018-11-10T05:32:31.129Z,28.87
2018-11-10T05:34:59.593Z,30.17
2018-11-10T05:37:28.079Z,30.93
2018-11-10T05:39:56.913Z,28.27
2018-11-10T05:42:25.370Z,28.57
2018-11-10T05:44:53.842Z,27.93
2018-11-10T05:47:22.345Z,29.07
2018-11-10T05:49:50.834Z,28.80
2018-11-10T05:52:19.313Z,30.00
2018-11-10T05:54:48.845Z,26.63
2018-11-10T05:57:17.511Z,27.65
2018-11-10T05:59:45.954Z,27.23
2018-11-10T06:07:08.363Z,24.53
2018-11-10T06:09:36.883Z,23.33
2018-11-10T06:12:07.367Z,25.27
2018-11-10T06:14:35.883Z,29.53
2018-11-10T06:17:04.712Z,28.87
2018-11-10T06:19:33.874Z,29.13
2018-11-10T06:22:02.511Z,27.00
2018-11-10T06:24:31.110Z,29.33
2018-11-10T06:26:59.598Z,26.57
2018-11-10T06:29:29.394Z,29.32
2018-11-10T06:31:57.910Z,27.53
2018-11-10T06:34:26.531Z,26.17
2018-11-10T06:36:56.153Z,27.07
2018-11-10T06:39:25.840Z,25.60
2018-11-10T06:41:55.042Z,28.00
2018-11-10T06:44:23.614Z,26.10
2018-11-10T06:46:52.109Z,25.30
2018-11-10T06:49:20.605Z,27.67
2018-11-10T06:51:49.593Z,26.80
2018-11-10T06:54:18.074Z,27.63
2018-11-10T06:56:47.303Z,27.03
2018-11-10T06:59:17.500Z,24.57
2018-11-10T07:01:45.976Z,26.17
2018-11-10T07:09:14.700Z,24.60
2018-11-10T07:11:43.177Z,22.97
2018-11-10T07:14:11.666Z,22.83
2018-11-10T07:16:40.204Z,23.10
2018-11-10T07:19:08.764Z,21.70
2018-11-10T07:21:37.250Z,20.77
2018-11-10T07:24:06.349Z,21.37
2018-11-10T07:26:35.300Z,22.77
2018-11-10T07:29:04.639Z,24.43
2018-11-10T07:31:34.450Z,24.63
2018-11-10T07:34:03.600Z,21.77
2018-11-10T07:36:32.325Z,23.30
2018-11-10T07:39:00.862Z,22.10
2018-11-10T07:41:29.529Z,23.20
2018-11-10T07:43:58.189Z,22.47
2018-11-10T07:46:26.903Z,22.40
2018-11-10T07:48:55.381Z,21.33
2018-11-10T07:51:23.936Z,22.07
2018-11-10T07:53:52.766Z,23.10
2018-11-10T07:56:21.442Z,21.10
2018-11-10T07:58:49.918Z,24.60
2018-11-10T08:01:18.445Z,22.50
2018-11-10T08:03:46.956Z,23.80
2018-11-10T08:11:11.537Z,20.93
2018-11-10T08:13:40.022Z,19.63
2018-11-10T08:16:08.885Z,20.73
2018-11-10T08:18:37.568Z,20.07
2018-11-10T08:21:06.506Z,22.20
2018-11-10T08:23:35.097Z,21.93
2018-11-10T08:26:03.662Z,19.20
2018-11-10T08:28:32.134Z,18.10
2018-11-10T08:31:00.664Z,20.27
2018-11-10T08:33:30.178Z,20.20
2018-11-10T08:35:58.944Z,17.70
2018-11-10T08:38:29.757Z,22.87
2018-11-10T08:40:58.475Z,18.83
2018-11-10T08:43:26.966Z,17.80
2018-11-10T08:45:55.467Z,19.30
2018-11-10T08:48:24.318Z,18.47
2018-11-10T08:50:52.811Z,18.53
2018-11-10T08:53:22.649Z,16.90
2018-11-10T08:55:51.825Z,19.07
2018-11-10T08:58:20.309Z,18.23
2018-11-10T09:00:48.781Z,18.57
2018-11-10T09:03:17.523Z,18.32
2018-11-10T09:05:45.998Z,16.33
2018-11-10T09:13:08.602Z,18.27
2018-11-10T09:15:38.097Z,18.60
2018-11-10T09:18:06.606Z,17.30
2018-11-10T09:20:35.810Z,18.20
2018-11-10T09:23:05.007Z,17.27
2018-11-10T09:25:33.521Z,15.48
2018-11-10T09:28:02.078Z,17.30
2018-11-10T09:30:31.390Z,18.73
2018-11-10T09:32:59.854Z,19.70
2018-11-10T09:35:29.650Z,20.82
2018-11-10T09:37:58.138Z,19.20
2018-11-10T09:40:30.267Z,19.97
2018-11-10T09:43:00.000Z,20.33
2018-11-10T09:45:28.559Z,18.40
2018-11-10T09:47:57.102Z,19.67
2018-11-10T09:50:25.681Z,18.40
2018-11-10T09:52:54.339Z,18.30
2018-11-10T09:55:23.231Z,18.77
2018-11-10T09:57:52.810Z,17.40
2018-11-10T10:00:22.618Z,17.75
2018-11-10T10:02:51.695Z,17.07
2018-11-10T10:05:19.885Z,18.03
2018-11-10T10:07:48.412Z,18.07
2018-11-10T10:10:19.562Z,19.25
2018-11-10T10:12:49.037Z,19.80
2018-11-10T10:15:18.411Z,20.00
2018-11-10T10:17:47.942Z,19.20
2018-11-10T10:20:18.879Z,17.70
2018-11-10T10:22:48.182Z,19.35
2018-11-10T10:25:18.058Z,18.25
2018-11-10T10:27:47.471Z,17.90
2018-11-10T10:30:22.039Z,18.84
2018-11-10T10:32:50.777Z,19.50
2018-11-10T10:35:19.381Z,19.10
2018-11-10T10:37:49.913Z,18.50
2018-11-10T10:40:18.566Z,18.25
2018-11-10T10:42:47.617Z,15.90
2018-11-10T10:45:19.955Z,17.60
2018-11-10T10:47:48.498Z,16.62
2018-11-10T10:50:18.629Z,16.80
2018-11-10T10:52:47.125Z,17.37
2018-11-10T10:55:18.270Z,17.77
2018-11-10T10:57:47.996Z,17.83
2018-11-10T11:00:22.911Z,17.34
2018-11-10T11:02:57.229Z,17.20
2018-11-10T11:05:31.102Z,17.40
2018-11-10T11:07:59.625Z,17.50
2018-11-10T11:10:28.114Z,16.97
2018-11-10T11:12:56.617Z,17.40
2018-11-10T11:15:25.878Z,17.27
2018-11-10T11:17:54.269Z,16.43
2018-11-10T11:20:23.473Z,16.50
2018-11-10T11:22:52.447Z,18.33
2018-11-10T11:25:20.929Z,18.70
2018-11-10T11:27:49.427Z,17.50
2018-11-10T11:30:18.105Z,17.82
2018-11-10T11:32:46.592Z,19.30
2018-11-10T11:40:16.342Z,19.60
2018-11-10T11:42:45.633Z,19.10
2018-11-10T11:50:14.687Z,20.60
2018-11-10T11:52:43.912Z,18.60
2018-11-10T11:55:12.999Z,20.82
2018-11-10T11:57:42.331Z,19.27
2018-11-10T12:00:13.382Z,19.92
2018-11-10T12:02:43.403Z,18.67
2018-11-10T12:05:13.790Z,17.92
2018-11-10T12:07:42.471Z,19.00
2018-11-10T12:10:12.414Z,19.47
2018-11-10T12:12:40.893Z,19.43
2018-11-10T12:15:10.494Z,18.75
2018-11-10T12:17:39.674Z,19.90
2018-11-10T12:20:09.840Z,19.83
2018-11-10T12:22:38.337Z,20.50
2018-11-10T12:25:07.408Z,20.67
2018-11-10T12:27:35.873Z,19.80
2018-11-10T12:30:04.492Z,21.10
2018-11-10T12:32:33.010Z,21.70
2018-11-10T12:35:01.660Z,21.77
2018-11-10T12:37:30.144Z,22.03
2018-11-10T12:39:58.956Z,20.23
2018-11-10T12:42:28.472Z,22.63
2018-11-10T12:44:56.943Z,22.10
2018-11-10T12:47:25.543Z,22.62
2018-11-10T12:49:54.066Z,21.03
2018-11-10T12:52:22.721Z,21.30
2018-11-10T12:54:51.256Z,22.00
2018-11-10T12:57:20.346Z,21.17
2018-11-10T12:59:49.317Z,21.97
2018-11-10T13:02:18.279Z,22.10
2018-11-10T13:04:47.552Z,22.77
2018-11-10T13:07:18.965Z,22.17
2018-11-10T13:09:47.579Z,25.00
2018-11-10T13:12:17.370Z,28.00
2018-11-10T13:14:46.614Z,27.30
2018-11-10T13:17:21.512Z,27.52
2018-11-10T13:19:50.698Z,27.23
2018-11-10T13:22:19.158Z,28.97
2018-11-10T13:24:48.031Z,29.73
2018-11-10T13:27:17.606Z,29.63
2018-11-10T13:29:46.129Z,29.87
2018-11-10T13:37:09.486Z,29.47
2018-11-10T13:39:38.346Z,29.67
2018-11-10T13:42:06.906Z,31.80
2018-11-10T13:44:36.840Z,31.50
2018-11-10T13:47:05.645Z,30.00
2018-11-10T13:49:34.313Z,29.65
2018-11-10T13:52:04.094Z,29.60
2018-11-10T13:54:39.433Z,29.90
2018-11-10T13:57:08.666Z,30.97
2018-11-10T13:59:37.986Z,29.43
2018-11-10T14:02:07.505Z,32.53
2018-11-10T14:04:35.993Z,31.03
2018-11-10T14:07:04.604Z,33.10
2018-11-10T14:09:33.083Z,35.60
2018-11-10T14:12:03.104Z,35.07
2018-11-10T14:14:31.630Z,35.17
2018-11-10T14:17:00.490Z,35.90
2018-11-10T14:19:29.522Z,36.90
2018-11-10T14:21:58.006Z,37.00
2018-11-10T14:24:26.664Z,36.50
2018-11-10T14:26:55.350Z,37.23
2018-11-10T14:29:24.481Z,37.50
2018-11-10T14:31:53.042Z,35.77
2018-11-10T14:34:21.646Z,36.63
2018-11-10T14:36:50.134Z,34.70
2018-11-10T14:39:18.637Z,35.43
2018-11-10T14:41:47.542Z,35.10
2018-11-10T14:44:18.062Z,34.53
2018-11-10T14:46:47.287Z,35.68
2018-11-10T14:49:17.414Z,34.92
2018-11-10T14:51:46.452Z,36.30
2018-11-10T14:59:13.399Z,38.03
2018-11-10T15:01:41.906Z,34.60
2018-11-10T15:04:10.419Z,36.27
2018-11-10T15:06:38.944Z,36.60
2018-11-10T15:09:08.886Z,36.20
2018-11-10T15:11:37.822Z,36.60
2018-11-10T15:14:06.799Z,34.20
2018-11-10T15:16:36.293Z,34.70
2018-11-10T15:19:04.935Z,35.00
2018-11-10T15:21:34.078Z,33.23
2018-11-10T15:24:02.599Z,34.50
2018-11-10T15:26:31.162Z,37.43
2018-11-10T15:28:59.867Z,34.77
2018-11-10T15:31:29.139Z,35.73
2018-11-10T15:33:57.662Z,35.37
2018-11-10T15:36:26.241Z,39.70
2018-11-10T15:38:54.738Z,40.80
2018-11-10T15:41:26.723Z,89.87
2018-11-10T15:43:55.671Z,41.43
2018-11-10T15:46:24.147Z,36.33
2018-11-10T15:48:53.214Z,36.63
2018-11-10T15:51:22.018Z,32.60
2018-11-10T15:53:50.953Z,32.40
2018-11-10T15:56:19.474Z,33.58
2018-11-10T15:58:48.094Z,31.20
2018-11-10T16:01:18.034Z,31.33
2018-11-10T16:03:47.387Z,30.80
2018-11-10T16:11:10.640Z,32.43
2018-11-10T16:13:39.118Z,31.13
2018-11-10T16:16:07.615Z,30.57
2018-11-10T16:18:36.218Z,31.00
2018-11-10T16:21:04.755Z,29.80
2018-11-10T16:23:34.223Z,31.30
2018-11-10T16:26:02.721Z,32.73
2018-11-10T16:28:31.246Z,32.83
2018-11-10T16:30:59.751Z,32.67
2018-11-10T16:33:28.610Z,32.93
2018-11-10T16:35:57.750Z,35.10
2018-11-10T16:38:26.397Z,37.67
2018-11-10T16:40:54.941Z,35.67
2018-11-10T16:43:23.421Z,33.98
2018-11-10T16:45:51.982Z,33.10
2018-11-10T16:48:20.514Z,32.63
2018-11-10T16:50:50.087Z,33.40
2018-11-10T16:53:18.627Z,31.85
2018-11-10T16:55:47.329Z,34.00
2018-11-10T16:58:17.576Z,32.85
2018-11-10T17:00:46.061Z,32.20
2018-11-10T17:08:08.123Z,31.70
2018-11-10T17:10:37.340Z,34.40
2018-11-10T17:13:06.779Z,38.20
2018-11-10T17:15:35.734Z,38.27
2018-11-10T17:18:04.214Z,36.83
2018-11-10T17:20:32.715Z,34.47
2018-11-10T17:23:01.605Z,34.60
2018-11-10T17:25:30.741Z,35.37
2018-11-10T17:27:59.438Z,34.17
2018-11-10T17:30:28.518Z,41.23
2018-11-10T17:32:57.219Z,36.97
2018-11-10T17:35:26.040Z,35.67
2018-11-10T17:37:54.619Z,35.80
2018-11-10T17:40:23.309Z,38.00
2018-11-10T17:42:51.711Z,35.97
2018-11-10T17:45:20.229Z,37.60
2018-11-10T17:47:49.010Z,39.90
2018-11-10T17:50:19.621Z,40.70
2018-11-10T17:52:48.805Z,44.43
2018-11-10T17:55:18.973Z,42.04
2018-11-10T17:57:47.828Z,41.90
2018-11-10T18:00:18.662Z,39.10
2018-11-10T18:02:47.186Z,37.63
2018-11-10T18:05:17.737Z,37.86
2018-11-10T18:07:46.766Z,39.83
2018-11-10T18:15:10.158Z,41.00
2018-11-10T18:17:40.409Z,40.70
2018-11-10T18:20:09.977Z,43.97
2018-11-10T18:22:39.045Z,40.77
2018-11-10T18:25:09.111Z,42.27
2018-11-10T18:27:37.743Z,43.03
2018-11-10T18:30:08.507Z,43.90
2018-11-10T18:32:37.134Z,42.97
2018-11-10T18:35:07.841Z,39.97
2018-11-10T18:37:36.954Z,40.40
2018-11-10T18:40:06.906Z,39.33
2018-11-10T18:42:35.529Z,39.10
2018-11-10T18:45:04.604Z,38.10
2018-11-10T18:47:33.135Z,39.03
2018-11-10T18:50:01.617Z,40.30
2018-11-10T18:52:30.265Z,35.83
2018-11-10T18:55:00.746Z,39.13
2018-11-10T18:57:29.459Z,38.60
2018-11-10T18:59:57.935Z,40.40
2018-11-10T19:02:28.241Z,39.92
2018-11-10T19:04:56.746Z,41.13
2018-11-10T19:07:25.926Z,39.25
2018-11-10T19:09:54.712Z,43.50
2018-11-10T19:12:24.644Z,44.10
2018-11-10T19:14:55.299Z,42.13
2018-11-10T19:17:23.798Z,42.90
2018-11-10T19:19:52.373Z,46.60
2018-11-10T19:22:21.400Z,45.40
2018-11-10T19:24:50.025Z,43.60
2018-11-10T19:27:18.785Z,45.47
2018-11-10T19:29:47.678Z,46.33
2018-11-10T19:32:18.507Z,47.00
2018-11-10T19:34:46.954Z,46.30
2018-11-10T19:42:11.703Z,48.05
2018-11-10T19:44:40.308Z,47.20
2018-11-10T19:47:10.912Z,47.03
2018-11-10T19:49:40.237Z,48.00
2018-11-10T19:52:09.179Z,48.97
2018-11-10T19:54:38.276Z,47.03
2018-11-10T19:57:09.288Z,51.48
2018-11-10T19:59:37.762Z,46.10
2018-11-10T20:02:06.549Z,50.73
2018-11-10T20:04:35.089Z,46.63
2018-11-10T20:07:03.863Z,49.00
2018-11-10T20:09:32.703Z,49.70
2018-11-10T20:12:03.420Z,45.87
2018-11-10T20:14:33.003Z,45.00
2018-11-10T20:17:01.507Z,45.05
2018-11-10T20:19:30.582Z,46.00
2018-11-10T20:21:59.382Z,42.67
2018-11-10T20:24:27.922Z,46.47
2018-11-10T20:26:56.470Z,43.40
2018-11-10T20:29:25.050Z,43.50
2018-11-10T20:31:54.559Z,48.65
2018-11-10T20:34:23.086Z,47.37
2018-11-10T20:36:51.583Z,46.07
2018-11-10T20:39:20.111Z,49.57
2018-11-10T20:41:48.972Z,48.80
2018-11-10T20:44:17.595Z,49.95
2018-11-10T20:46:46.323Z,48.07
2018-11-10T20:54:17.594Z,45.80
2018-11-10T20:56:46.192Z,48.13
2018-11-10T21:06:48.493Z,45.15
2018-11-10T21:09:17.537Z,49.15
2018-11-10T21:11:46.622Z,48.00
2018-11-10T21:19:09.134Z,47.30
2018-11-10T21:21:37.629Z,49.83
2018-11-10T21:24:06.470Z,51.67
2018-11-10T21:26:35.929Z,49.73
2018-11-10T21:29:04.644Z,49.27
2018-11-10T21:31:33.154Z,46.17
2018-11-10T21:34:01.756Z,49.40
2018-11-10T21:36:30.221Z,55.73
2018-11-10T21:38:58.870Z,55.33
2018-11-10T21:41:27.414Z,47.23
2018-11-10T21:43:56.102Z,44.33
2018-11-10T21:46:24.907Z,52.33
2018-11-10T21:48:53.904Z,45.25
2018-11-10T21:51:22.384Z,43.52
2018-11-10T21:53:50.884Z,45.30
2018-11-10T21:56:19.596Z,43.50
2018-11-10T21:58:49.108Z,39.00
2018-11-10T22:01:18.282Z,43.38
2018-11-10T22:03:46.950Z,44.13
2018-11-10T22:09:36.061Z,44.90
2018-11-10T22:12:04.861Z,40.38
2018-11-10T22:14:33.563Z,42.87
2018-11-10T22:17:03.196Z,41.20
2018-11-10T22:19:31.738Z,42.60
2018-11-10T22:22:00.210Z,39.83
2018-11-10T22:24:28.821Z,40.77
2018-11-10T22:26:57.344Z,42.00
2018-11-10T22:29:26.554Z,40.40
2018-11-10T22:31:55.090Z,40.10
2018-11-10T22:34:23.559Z,36.83
2018-11-10T22:36:52.032Z,38.53
2018-11-10T22:39:21.593Z,40.50
2018-11-10T22:41:50.053Z,36.53
2018-11-10T22:44:18.543Z,40.40
2018-11-10T22:46:47.049Z,36.90
2018-11-10T22:49:17.407Z,39.70
2018-11-10T22:51:46.518Z,39.27
2018-11-10T22:59:09.945Z,35.57
2018-11-10T23:01:39.254Z,35.43
2018-11-10T23:04:07.864Z,35.53
2018-11-10T23:06:36.797Z,37.03
2018-11-10T23:09:08.338Z,35.93
2018-11-10T23:11:36.909Z,36.90
2018-11-10T23:14:05.759Z,36.38
2018-11-10T23:16:35.161Z,36.48
2018-11-10T23:19:04.624Z,34.87
2018-11-10T23:21:34.479Z,34.33
2018-11-10T23:24:03.410Z,34.20
2018-11-10T23:26:32.180Z,33.70
2018-11-10T23:29:00.818Z,30.57
2018-11-10T23:31:29.729Z,32.70
2018-11-10T23:33:58.274Z,33.47
2018-11-10T23:36:26.777Z,34.60
2018-11-10T23:38:55.241Z,33.33
2018-11-10T23:41:23.753Z,33.42
2018-11-10T23:43:52.320Z,37.30
2018-11-10T23:46:20.891Z,34.65
2018-11-10T23:48:49.379Z,36.07
2018-11-10T23:51:18.906Z,35.60
2018-11-10T23:53:47.392Z,36.73
